sensor_id;sensor_type;location;lat;lon;timestamp;pressure;altitude;pressure_sealevel;temperature
35582;BMP180;21687;48.900;9.188;2023-07-13T00:01:59;98445.00;;;18.60
35582;BMP180;21687;48.900;9.188;2023-07-13T00:04:25;98444.00;;;18.50
35582;BMP180;21687;48.900;9.188;2023-07-13T00:06:52;98451.00;;;18.50
35582;BMP180;21687;48.900;9.188;2023-07-13T00:09:19;98439.00;;;18.40
35582;BMP180;21687;48.900;9.188;2023-07-13T00:11:54;98437.00;;;18.30
35582;BMP180;21687;48.900;9.188;2023-07-13T00:14:21;98436.00;;;18.20
35582;BMP180;21687;48.900;9.188;2023-07-13T00:16:48;98440.00;;;18.20
35582;BMP180;21687;48.900;9.188;2023-07-13T00:19:14;98432.00;;;18.10
35582;BMP180;21687;48.900;9.188;2023-07-13T00:21:41;98427.00;;;18.00
35582;BMP180;21687;48.900;9.188;2023-07-13T00:24:12;98432.00;;;18.00
35582;BMP180;21687;48.900;9.188;2023-07-13T00:26:40;98432.00;;;18.00
35582;BMP180;21687;48.900;9.188;2023-07-13T00:29:06;98433.00;;;17.90
35582;BMP180;21687;48.900;9.188;2023-07-13T00:31:35;98429.00;;;17.90
35582;BMP180;21687;48.900;9.188;2023-07-13T00:34:02;98430.00;;;17.70
35582;BMP180;21687;48.900;9.188;2023-07-13T00:36:29;98433.00;;;17.70
35582;BMP180;21687;48.900;9.188;2023-07-13T00:38:56;98432.00;;;17.60
35582;BMP180;21687;48.900;9.188;2023-07-13T00:41:22;98431.00;;;17.50
35582;BMP180;21687;48.900;9.188;2023-07-13T00:43:49;98422.00;;;17.40
35582;BMP180;21687;48.900;9.188;2023-07-13T00:46:25;98426.00;;;17.40
35582;BMP180;21687;48.900;9.188;2023-07-13T00:48:54;98425.00;;;17.40
35582;BMP180;21687;48.900;9.188;2023-07-13T00:51:32;98427.00;;;17.40
35582;BMP180;21687;48.900;9.188;2023-07-13T00:54:05;98433.00;;;17.30
35582;BMP180;21687;48.900;9.188;2023-07-13T00:56:33;98423.00;;;17.20
35582;BMP180;21687;48.900;9.188;2023-07-13T00:59:01;98422.00;;;17.20
35582;BMP180;21687;48.900;9.188;2023-07-13T01:01:29;98427.00;;;17.20
35582;BMP180;21687;48.900;9.188;2023-07-13T01:03:56;98428.00;;;17.10
35582;BMP180;21687;48.900;9.188;2023-07-13T01:06:23;98432.00;;;17.10
35582;BMP180;21687;48.900;9.188;2023-07-13T01:08:49;98433.00;;;17.10
35582;BMP180;21687;48.900;9.188;2023-07-13T01:11:21;98439.00;;;17.10
35582;BMP180;21687;48.900;9.188;2023-07-13T01:13:48;98437.00;;;17.00
35582;BMP180;21687;48.900;9.188;2023-07-13T01:16:27;98429.00;;;17.00
35582;BMP180;21687;48.900;9.188;2023-07-13T01:18:54;98429.00;;;16.90
35582;BMP180;21687;48.900;9.188;2023-07-13T01:21:24;98430.00;;;16.80
35582;BMP180;21687;48.900;9.188;2023-07-13T01:23:51;98427.00;;;16.80
35582;BMP180;21687;48.900;9.188;2023-07-13T01:26:18;98425.00;;;16.70
35582;BMP180;21687;48.900;9.188;2023-07-13T01:28:44;98424.00;;;16.70
35582;BMP180;21687;48.900;9.188;2023-07-13T01:31:12;98430.00;;;16.60
35582;BMP180;21687;48.900;9.188;2023-07-13T01:33:39;98429.00;;;16.60
35582;BMP180;21687;48.900;9.188;2023-07-13T01:36:07;98423.00;;;16.50
35582;BMP180;21687;48.900;9.188;2023-07-13T01:38:34;98433.00;;;16.50
35582;BMP180;21687;48.900;9.188;2023-07-13T01:41:00;98425.00;;;16.40
35582;BMP180;21687;48.900;9.188;2023-07-13T01:43:27;98430.00;;;16.30
35582;BMP180;21687;48.900;9.188;2023-07-13T01:45:53;98434.00;;;16.30
35582;BMP180;21687;48.900;9.188;2023-07-13T01:48:20;98446.00;;;16.30
35582;BMP180;21687;48.900;9.188;2023-07-13T01:50:47;98443.00;;;16.10
35582;BMP180;21687;48.900;9.188;2023-07-13T01:53:13;98448.00;;;16.10
35582;BMP180;21687;48.900;9.188;2023-07-13T01:55:40;98453.00;;;16.20
35582;BMP180;21687;48.900;9.188;2023-07-13T01:58:06;98450.00;;;16.30
35582;BMP180;21687;48.900;9.188;2023-07-13T02:00:32;98451.00;;;16.20
35582;BMP180;21687;48.900;9.188;2023-07-13T02:02:59;98454.00;;;16.10
35582;BMP180;21687;48.900;9.188;2023-07-13T02:05:25;98449.00;;;16.00
35582;BMP180;21687;48.900;9.188;2023-07-13T02:07:52;98446.00;;;15.90
35582;BMP180;21687;48.900;9.188;2023-07-13T02:10:19;98454.00;;;15.70
35582;BMP180;21687;48.900;9.188;2023-07-13T02:12:47;98454.00;;;15.60
35582;BMP180;21687;48.900;9.188;2023-07-13T02:15:14;98456.00;;;15.50
35582;BMP180;21687;48.900;9.188;2023-07-13T02:17:40;98455.00;;;15.40
35582;BMP180;21687;48.900;9.188;2023-07-13T02:20:07;98466.00;;;15.40
35582;BMP180;21687;48.900;9.188;2023-07-13T02:22:34;98465.00;;;15.30
35582;BMP180;21687;48.900;9.188;2023-07-13T02:25:00;98462.00;;;15.20
35582;BMP180;21687;48.900;9.188;2023-07-13T02:27:27;98469.00;;;15.10
35582;BMP180;21687;48.900;9.188;2023-07-13T02:29:54;98458.00;;;15.00
35582;BMP180;21687;48.900;9.188;2023-07-13T02:32:20;98462.00;;;15.00
35582;BMP180;21687;48.900;9.188;2023-07-13T02:34:46;98462.00;;;15.00
35582;BMP180;21687;48.900;9.188;2023-07-13T02:37:13;98462.00;;;15.00
35582;BMP180;21687;48.900;9.188;2023-07-13T02:39:39;98467.00;;;14.90
35582;BMP180;21687;48.900;9.188;2023-07-13T02:42:06;98463.00;;;14.90
35582;BMP180;21687;48.900;9.188;2023-07-13T02:44:32;98469.00;;;14.90
35582;BMP180;21687;48.900;9.188;2023-07-13T02:46:59;98461.00;;;14.90
35582;BMP180;21687;48.900;9.188;2023-07-13T02:49:25;98463.00;;;14.90
35582;BMP180;21687;48.900;9.188;2023-07-13T02:51:52;98464.00;;;14.90
35582;BMP180;21687;48.900;9.188;2023-07-13T02:54:18;98468.00;;;15.10
35582;BMP180;21687;48.900;9.188;2023-07-13T02:56:45;98466.00;;;15.10
35582;BMP180;21687;48.900;9.188;2023-07-13T02:59:11;98474.00;;;15.00
35582;BMP180;21687;48.900;9.188;2023-07-13T03:01:38;98474.00;;;15.00
35582;BMP180;21687;48.900;9.188;2023-07-13T03:04:05;98466.00;;;15.00
35582;BMP180;21687;48.900;9.188;2023-07-13T03:06:32;98468.00;;;15.00
35582;BMP180;21687;48.900;9.188;2023-07-13T03:08:59;98472.00;;;15.00
35582;BMP180;21687;48.900;9.188;2023-07-13T03:11:26;98473.00;;;15.10
35582;BMP180;21687;48.900;9.188;2023-07-13T03:13:52;98473.00;;;15.10
35582;BMP180;21687;48.900;9.188;2023-07-13T03:16:19;98474.00;;;15.10
35582;BMP180;21687;48.900;9.188;2023-07-13T03:18:47;98475.00;;;15.10
35582;BMP180;21687;48.900;9.188;2023-07-13T03:21:14;98478.00;;;15.00
35582;BMP180;21687;48.900;9.188;2023-07-13T03:23:40;98481.00;;;14.90
35582;BMP180;21687;48.900;9.188;2023-07-13T03:26:13;98477.00;;;15.00
35582;BMP180;21687;48.900;9.188;2023-07-13T03:28:40;98471.00;;;15.10
35582;BMP180;21687;48.900;9.188;2023-07-13T03:31:10;98489.00;;;15.00
35582;BMP180;21687;48.900;9.188;2023-07-13T03:33:37;98490.00;;;15.10
35582;BMP180;21687;48.900;9.188;2023-07-13T03:36:05;98490.00;;;15.10
35582;BMP180;21687;48.900;9.188;2023-07-13T03:38:32;98499.00;;;15.30
35582;BMP180;21687;48.900;9.188;2023-07-13T03:40:59;98507.00;;;15.40
35582;BMP180;21687;48.900;9.188;2023-07-13T03:43:25;98496.00;;;15.60
35582;BMP180;21687;48.900;9.188;2023-07-13T03:45:51;98508.00;;;15.60
35582;BMP180;21687;48.900;9.188;2023-07-13T03:48:18;98505.00;;;15.80
35582;BMP180;21687;48.900;9.188;2023-07-13T03:50:44;98509.00;;;15.80
35582;BMP180;21687;48.900;9.188;2023-07-13T03:53:10;98514.00;;;15.80
35582;BMP180;21687;48.900;9.188;2023-07-13T03:55:37;98514.00;;;16.00
35582;BMP180;21687;48.900;9.188;2023-07-13T04:00:52;98529.00;;;16.30
35582;BMP180;21687;48.900;9.188;2023-07-13T04:03:19;98527.00;;;16.40
35582;BMP180;21687;48.900;9.188;2023-07-13T04:05:45;98531.00;;;16.50
35582;BMP180;21687;48.900;9.188;2023-07-13T04:08:12;98522.00;;;16.50
35582;BMP180;21687;48.900;9.188;2023-07-13T04:10:39;98526.00;;;16.40
35582;BMP180;21687;48.900;9.188;2023-07-13T04:13:05;98520.00;;;16.40
35582;BMP180;21687;48.900;9.188;2023-07-13T04:15:32;98525.00;;;16.40
35582;BMP180;21687;48.900;9.188;2023-07-13T04:17:59;98528.00;;;16.40
35582;BMP180;21687;48.900;9.188;2023-07-13T04:20:26;98528.00;;;16.40
35582;BMP180;21687;48.900;9.188;2023-07-13T04:22:53;98530.00;;;16.30
35582;BMP180;21687;48.900;9.188;2023-07-13T04:25:20;98523.00;;;16.30
35582;BMP180;21687;48.900;9.188;2023-07-13T04:27:47;98531.00;;;16.30
35582;BMP180;21687;48.900;9.188;2023-07-13T04:30:14;98522.00;;;16.30
35582;BMP180;21687;48.900;9.188;2023-07-13T04:32:40;98541.00;;;16.30
35582;BMP180;21687;48.900;9.188;2023-07-13T04:35:07;98535.00;;;16.30
35582;BMP180;21687;48.900;9.188;2023-07-13T04:37:33;98530.00;;;16.30
35582;BMP180;21687;48.900;9.188;2023-07-13T04:40:02;98521.00;;;16.20
35582;BMP180;21687;48.900;9.188;2023-07-13T04:42:30;98534.00;;;16.20
35582;BMP180;21687;48.900;9.188;2023-07-13T04:44:56;98538.00;;;16.20
35582;BMP180;21687;48.900;9.188;2023-07-13T04:47:23;98540.00;;;16.20
35582;BMP180;21687;48.900;9.188;2023-07-13T04:49:49;98542.00;;;16.20
35582;BMP180;21687;48.900;9.188;2023-07-13T04:52:15;98542.00;;;16.20
35582;BMP180;21687;48.900;9.188;2023-07-13T04:54:42;98539.00;;;16.10
35582;BMP180;21687;48.900;9.188;2023-07-13T04:57:08;98541.00;;;16.10
35582;BMP180;21687;48.900;9.188;2023-07-13T04:59:35;98530.00;;;16.10
35582;BMP180;21687;48.900;9.188;2023-07-13T05:02:01;98544.00;;;16.20
35582;BMP180;21687;48.900;9.188;2023-07-13T05:04:28;98541.00;;;16.20
35582;BMP180;21687;48.900;9.188;2023-07-13T05:06:54;98542.00;;;16.40
35582;BMP180;21687;48.900;9.188;2023-07-13T05:09:20;98546.00;;;16.90
35582;BMP180;21687;48.900;9.188;2023-07-13T05:11:46;98547.00;;;17.60
35582;BMP180;21687;48.900;9.188;2023-07-13T05:14:13;98548.00;;;18.60
35582;BMP180;21687;48.900;9.188;2023-07-13T05:16:40;98551.00;;;19.60
35582;BMP180;21687;48.900;9.188;2023-07-13T05:19:06;98545.00;;;20.20
35582;BMP180;21687;48.900;9.188;2023-07-13T05:21:32;98554.00;;;20.00
35582;BMP180;21687;48.900;9.188;2023-07-13T05:23:59;98554.00;;;19.80
35582;BMP180;21687;48.900;9.188;2023-07-13T05:26:25;98557.00;;;19.60
35582;BMP180;21687;48.900;9.188;2023-07-13T05:28:51;98554.00;;;19.20
35582;BMP180;21687;48.900;9.188;2023-07-13T05:31:18;98566.00;;;18.90
35582;BMP180;21687;48.900;9.188;2023-07-13T05:33:44;98563.00;;;18.80
35582;BMP180;21687;48.900;9.188;2023-07-13T05:36:11;98560.00;;;18.70
35582;BMP180;21687;48.900;9.188;2023-07-13T05:38:37;98564.00;;;18.70
35582;BMP180;21687;48.900;9.188;2023-07-13T05:41:03;98566.00;;;18.50
35582;BMP180;21687;48.900;9.188;2023-07-13T05:43:30;98555.00;;;18.50
35582;BMP180;21687;48.900;9.188;2023-07-13T05:45:57;98558.00;;;18.50
35582;BMP180;21687;48.900;9.188;2023-07-13T05:48:23;98561.00;;;18.70
35582;BMP180;21687;48.900;9.188;2023-07-13T05:50:51;98567.00;;;18.80
35582;BMP180;21687;48.900;9.188;2023-07-13T05:53:17;98572.00;;;18.90
35582;BMP180;21687;48.900;9.188;2023-07-13T05:55:45;98575.00;;;18.90
35582;BMP180;21687;48.900;9.188;2023-07-13T05:58:14;98572.00;;;18.90
35582;BMP180;21687;48.900;9.188;2023-07-13T06:00:40;98582.00;;;18.90
35582;BMP180;21687;48.900;9.188;2023-07-13T06:03:07;98578.00;;;19.00
35582;BMP180;21687;48.900;9.188;2023-07-13T06:05:35;98581.00;;;19.20
35582;BMP180;21687;48.900;9.188;2023-07-13T06:08:02;98576.00;;;19.90
35582;BMP180;21687;48.900;9.188;2023-07-13T06:10:28;98582.00;;;20.70
35582;BMP180;21687;48.900;9.188;2023-07-13T06:12:54;98576.00;;;21.30
35582;BMP180;21687;48.900;9.188;2023-07-13T06:15:21;98599.00;;;21.70
35582;BMP180;21687;48.900;9.188;2023-07-13T06:17:47;98588.00;;;21.90
35582;BMP180;21687;48.900;9.188;2023-07-13T06:20:13;98596.00;;;22.30
35582;BMP180;21687;48.900;9.188;2023-07-13T06:22:39;98597.00;;;22.40
35582;BMP180;21687;48.900;9.188;2023-07-13T06:25:06;98600.00;;;22.00
35582;BMP180;21687;48.900;9.188;2023-07-13T06:27:33;98602.00;;;21.80
35582;BMP180;21687;48.900;9.188;2023-07-13T06:29:59;98603.00;;;21.90
35582;BMP180;21687;48.900;9.188;2023-07-13T06:32:29;98607.00;;;22.00
35582;BMP180;21687;48.900;9.188;2023-07-13T06:34:55;98610.00;;;21.50
35582;BMP180;21687;48.900;9.188;2023-07-13T06:37:22;98608.00;;;21.30
35582;BMP180;21687;48.900;9.188;2023-07-13T06:39:48;98619.00;;;21.70
35582;BMP180;21687;48.900;9.188;2023-07-13T06:42:15;98617.00;;;22.70
35582;BMP180;21687;48.900;9.188;2023-07-13T06:44:42;98623.00;;;23.60
35582;BMP180;21687;48.900;9.188;2023-07-13T06:47:09;98628.00;;;23.90
35582;BMP180;21687;48.900;9.188;2023-07-13T06:49:35;98626.00;;;23.90
35582;BMP180;21687;48.900;9.188;2023-07-13T06:52:01;98630.00;;;23.90
35582;BMP180;21687;48.900;9.188;2023-07-13T06:54:28;98628.00;;;24.30
35582;BMP180;21687;48.900;9.188;2023-07-13T06:56:54;98635.00;;;24.00
35582;BMP180;21687;48.900;9.188;2023-07-13T06:59:21;98630.00;;;23.90
35582;BMP180;21687;48.900;9.188;2023-07-13T07:01:47;98638.00;;;23.70
35582;BMP180;21687;48.900;9.188;2023-07-13T07:04:13;98653.00;;;23.10
35582;BMP180;21687;48.900;9.188;2023-07-13T07:06:39;98646.00;;;23.00
35582;BMP180;21687;48.900;9.188;2023-07-13T07:09:06;98654.00;;;22.90
35582;BMP180;21687;48.900;9.188;2023-07-13T07:11:32;98656.00;;;22.70
35582;BMP180;21687;48.900;9.188;2023-07-13T07:13:59;98658.00;;;22.20
35582;BMP180;21687;48.900;9.188;2023-07-13T07:16:25;98651.00;;;22.60
35582;BMP180;21687;48.900;9.188;2023-07-13T07:18:52;98654.00;;;23.10
35582;BMP180;21687;48.900;9.188;2023-07-13T07:21:18;98654.00;;;24.20
35582;BMP180;21687;48.900;9.188;2023-07-13T07:23:45;98655.00;;;25.00
35582;BMP180;21687;48.900;9.188;2023-07-13T07:26:11;98654.00;;;24.80
35582;BMP180;21687;48.900;9.188;2023-07-13T07:28:38;98653.00;;;24.80
35582;BMP180;21687;48.900;9.188;2023-07-13T07:31:04;98653.00;;;24.80
35582;BMP180;21687;48.900;9.188;2023-07-13T07:33:32;98655.00;;;24.80
35582;BMP180;21687;48.900;9.188;2023-07-13T07:35:59;98656.00;;;24.70
35582;BMP180;21687;48.900;9.188;2023-07-13T07:38:25;98658.00;;;24.90
35582;BMP180;21687;48.900;9.188;2023-07-13T07:40:52;98659.00;;;25.50
35582;BMP180;21687;48.900;9.188;2023-07-13T07:43:18;98656.00;;;25.80
35582;BMP180;21687;48.900;9.188;2023-07-13T07:45:45;98657.00;;;25.80
35582;BMP180;21687;48.900;9.188;2023-07-13T07:48:12;98656.00;;;25.70
35582;BMP180;21687;48.900;9.188;2023-07-13T07:50:39;98659.00;;;25.80
35582;BMP180;21687;48.900;9.188;2023-07-13T07:53:06;98653.00;;;25.70
35582;BMP180;21687;48.900;9.188;2023-07-13T07:55:34;98654.00;;;25.70
35582;BMP180;21687;48.900;9.188;2023-07-13T07:58:04;98653.00;;;25.90
35582;BMP180;21687;48.900;9.188;2023-07-13T08:00:31;98660.00;;;26.00
35582;BMP180;21687;48.900;9.188;2023-07-13T08:02:59;98667.00;;;25.40
35582;BMP180;21687;48.900;9.188;2023-07-13T08:05:26;98657.00;;;24.90
35582;BMP180;21687;48.900;9.188;2023-07-13T08:07:53;98657.00;;;24.60
35582;BMP180;21687;48.900;9.188;2023-07-13T08:10:19;98665.00;;;24.90
35582;BMP180;21687;48.900;9.188;2023-07-13T08:12:46;98663.00;;;24.60
35582;BMP180;21687;48.900;9.188;2023-07-13T08:15:15;98665.00;;;24.60
35582;BMP180;21687;48.900;9.188;2023-07-13T08:17:41;98673.00;;;24.70
35582;BMP180;21687;48.900;9.188;2023-07-13T08:20:08;98665.00;;;24.30
35582;BMP180;21687;48.900;9.188;2023-07-13T08:22:37;98666.00;;;24.20
35582;BMP180;21687;48.900;9.188;2023-07-13T08:25:04;98668.00;;;24.30
35582;BMP180;21687;48.900;9.188;2023-07-13T08:27:32;98665.00;;;24.60
35582;BMP180;21687;48.900;9.188;2023-07-13T08:29:58;98671.00;;;25.10
35582;BMP180;21687;48.900;9.188;2023-07-13T08:32:25;98667.00;;;25.30
35582;BMP180;21687;48.900;9.188;2023-07-13T08:34:52;98673.00;;;24.90
35582;BMP180;21687;48.900;9.188;2023-07-13T08:37:18;98674.00;;;24.70
35582;BMP180;21687;48.900;9.188;2023-07-13T08:39:45;98672.00;;;24.60
35582;BMP180;21687;48.900;9.188;2023-07-13T08:42:22;98671.00;;;24.60
35582;BMP180;21687;48.900;9.188;2023-07-13T08:47:24;98678.00;;;24.80
35582;BMP180;21687;48.900;9.188;2023-07-13T08:49:51;98673.00;;;25.00
35582;BMP180;21687;48.900;9.188;2023-07-13T08:52:37;98676.00;;;25.40
35582;BMP180;21687;48.900;9.188;2023-07-13T08:57:45;98670.00;;;25.90
35582;BMP180;21687;48.900;9.188;2023-07-13T09:00:13;98672.00;;;25.80
35582;BMP180;21687;48.900;9.188;2023-07-13T09:03:00;98685.00;;;25.20
35582;BMP180;21687;48.900;9.188;2023-07-13T09:05:36;98689.00;;;25.00
35582;BMP180;21687;48.900;9.188;2023-07-13T09:11:14;98675.00;;;25.60
35582;BMP180;21687;48.900;9.188;2023-07-13T09:16:46;98681.00;;;26.20
35582;BMP180;21687;48.900;9.188;2023-07-13T09:19:20;98682.00;;;26.70
35582;BMP180;21687;48.900;9.188;2023-07-13T09:21:50;98674.00;;;26.80
35582;BMP180;21687;48.900;9.188;2023-07-13T09:24:41;98683.00;;;26.10
35582;BMP180;21687;48.900;9.188;2023-07-13T09:27:22;98691.00;;;25.80
35582;BMP180;21687;48.900;9.188;2023-07-13T09:30:50;98689.00;;;25.90
35582;BMP180;21687;48.900;9.188;2023-07-13T09:32:53;98680.00;;;25.70
35582;BMP180;21687;48.900;9.188;2023-07-13T09:35:22;98685.00;;;25.70
35582;BMP180;21687;48.900;9.188;2023-07-13T09:37:50;98693.00;;;25.80
35582;BMP180;21687;48.900;9.188;2023-07-13T09:40:43;98679.00;;;25.70
35582;BMP180;21687;48.900;9.188;2023-07-13T09:43:14;98684.00;;;25.70
35582;BMP180;21687;48.900;9.188;2023-07-13T09:45:41;98690.00;;;26.00
35582;BMP180;21687;48.900;9.188;2023-07-13T09:48:15;98682.00;;;26.00
35582;BMP180;21687;48.900;9.188;2023-07-13T09:50:44;98673.00;;;26.30
35582;BMP180;21687;48.900;9.188;2023-07-13T09:53:19;98688.00;;;25.90
35582;BMP180;21687;48.900;9.188;2023-07-13T09:55:47;98676.00;;;25.70
35582;BMP180;21687;48.900;9.188;2023-07-13T09:58:19;98680.00;;;25.80
35582;BMP180;21687;48.900;9.188;2023-07-13T10:01:02;98676.00;;;25.70
35582;BMP180;21687;48.900;9.188;2023-07-13T10:03:35;98671.00;;;26.20
35582;BMP180;21687;48.900;9.188;2023-07-13T10:06:13;98677.00;;;26.20
35582;BMP180;21687;48.900;9.188;2023-07-13T10:08:40;98677.00;;;26.30
35582;BMP180;21687;48.900;9.188;2023-07-13T10:11:22;98671.00;;;26.10
35582;BMP180;21687;48.900;9.188;2023-07-13T10:14:10;98676.00;;;26.20
35582;BMP180;21687;48.900;9.188;2023-07-13T10:16:37;98673.00;;;25.90
35582;BMP180;21687;48.900;9.188;2023-07-13T10:19:19;98676.00;;;26.00
35582;BMP180;21687;48.900;9.188;2023-07-13T10:21:55;98673.00;;;26.10
35582;BMP180;21687;48.900;9.188;2023-07-13T10:24:25;98679.00;;;25.80
35582;BMP180;21687;48.900;9.188;2023-07-13T10:29:27;98675.00;;;25.90
35582;BMP180;21687;48.900;9.188;2023-07-13T10:31:54;98668.00;;;26.20
35582;BMP180;21687;48.900;9.188;2023-07-13T10:34:20;98678.00;;;26.40
35582;BMP180;21687;48.900;9.188;2023-07-13T10:36:48;98677.00;;;25.90
35582;BMP180;21687;48.900;9.188;2023-07-13T10:39:26;98673.00;;;25.60
35582;BMP180;21687;48.900;9.188;2023-07-13T10:41:59;98670.00;;;25.50
35582;BMP180;21687;48.900;9.188;2023-07-13T10:44:29;98666.00;;;25.30
35582;BMP180;21687;48.900;9.188;2023-07-13T10:47:01;98670.00;;;25.40
35582;BMP180;21687;48.900;9.188;2023-07-13T10:49:31;98668.00;;;25.30
35582;BMP180;21687;48.900;9.188;2023-07-13T10:51:58;98678.00;;;25.30
35582;BMP180;21687;48.900;9.188;2023-07-13T10:54:42;98678.00;;;25.00
35582;BMP180;21687;48.900;9.188;2023-07-13T10:57:20;98676.00;;;24.50
35582;BMP180;21687;48.900;9.188;2023-07-13T11:00:14;98673.00;;;24.60
35582;BMP180;21687;48.900;9.188;2023-07-13T11:02:40;98667.00;;;24.90
35582;BMP180;21687;48.900;9.188;2023-07-13T11:05:26;98661.00;;;25.70
35582;BMP180;21687;48.900;9.188;2023-07-13T11:08:23;98656.00;;;26.10
35582;BMP180;21687;48.900;9.188;2023-07-13T11:10:58;98658.00;;;25.40
35582;BMP180;21687;48.900;9.188;2023-07-13T11:18:53;98651.00;;;26.10
35582;BMP180;21687;48.900;9.188;2023-07-13T11:21:34;98648.00;;;25.90
35582;BMP180;21687;48.900;9.188;2023-07-13T11:31:52;98627.00;;;26.90
35582;BMP180;21687;48.900;9.188;2023-07-13T11:34:33;98643.00;;;26.90
35582;BMP180;21687;48.900;9.188;2023-07-13T11:37:01;98629.00;;;26.60
35582;BMP180;21687;48.900;9.188;2023-07-13T11:39:36;98642.00;;;26.70
35582;BMP180;21687;48.900;9.188;2023-07-13T11:42:08;98632.00;;;26.70
35582;BMP180;21687;48.900;9.188;2023-07-13T11:44:43;98645.00;;;26.60
35582;BMP180;21687;48.900;9.188;2023-07-13T11:47:21;98643.00;;;26.00
35582;BMP180;21687;48.900;9.188;2023-07-13T11:49:54;98640.00;;;25.80
35582;BMP180;21687;48.900;9.188;2023-07-13T11:52:33;98639.00;;;25.90
35582;BMP180;21687;48.900;9.188;2023-07-13T11:55:02;98644.00;;;26.00
35582;BMP180;21687;48.900;9.188;2023-07-13T11:57:36;98644.00;;;26.00
35582;BMP180;21687;48.900;9.188;2023-07-13T12:00:16;98650.00;;;25.80
35582;BMP180;21687;48.900;9.188;2023-07-13T12:02:47;98645.00;;;26.00
35582;BMP180;21687;48.900;9.188;2023-07-13T12:05:16;98639.00;;;26.20
35582;BMP180;21687;48.900;9.188;2023-07-13T12:07:44;98645.00;;;26.70
35582;BMP180;21687;48.900;9.188;2023-07-13T12:10:28;98641.00;;;26.50
35582;BMP180;21687;48.900;9.188;2023-07-13T12:12:56;98642.00;;;26.00
35582;BMP180;21687;48.900;9.188;2023-07-13T12:15:23;98643.00;;;26.20
35582;BMP180;21687;48.900;9.188;2023-07-13T12:17:50;98644.00;;;26.40
35582;BMP180;21687;48.900;9.188;2023-07-13T12:20:26;98645.00;;;26.70
35582;BMP180;21687;48.900;9.188;2023-07-13T12:22:54;98653.00;;;26.50
35582;BMP180;21687;48.900;9.188;2023-07-13T12:25:20;98645.00;;;26.00
35582;BMP180;21687;48.900;9.188;2023-07-13T12:27:51;98645.00;;;26.20
35582;BMP180;21687;48.900;9.188;2023-07-13T12:30:33;98639.00;;;26.00
35582;BMP180;21687;48.900;9.188;2023-07-13T12:33:10;98637.00;;;26.10
35582;BMP180;21687;48.900;9.188;2023-07-13T12:35:47;98630.00;;;26.40
35582;BMP180;21687;48.900;9.188;2023-07-13T12:38:15;98627.00;;;26.40
35582;BMP180;21687;48.900;9.188;2023-07-13T12:40:42;98633.00;;;26.40
35582;BMP180;21687;48.900;9.188;2023-07-13T12:43:12;98642.00;;;26.80
35582;BMP180;21687;48.900;9.188;2023-07-13T12:45:40;98636.00;;;26.80
35582;BMP180;21687;48.900;9.188;2023-07-13T12:48:21;98637.00;;;27.00
35582;BMP180;21687;48.900;9.188;2023-07-13T12:50:48;98644.00;;;27.10
35582;BMP180;21687;48.900;9.188;2023-07-13T12:53:20;98637.00;;;26.80
35582;BMP180;21687;48.900;9.188;2023-07-13T12:55:56;98650.00;;;26.70
35582;BMP180;21687;48.900;9.188;2023-07-13T12:58:38;98640.00;;;26.70
35582;BMP180;21687;48.900;9.188;2023-07-13T13:01:05;98628.00;;;26.60
35582;BMP180;21687;48.900;9.188;2023-07-13T13:03:37;98633.00;;;27.40
35582;BMP180;21687;48.900;9.188;2023-07-13T13:06:23;98638.00;;;27.60
35582;BMP180;21687;48.900;9.188;2023-07-13T13:08:55;98623.00;;;27.50
35582;BMP180;21687;48.900;9.188;2023-07-13T13:11:23;98641.00;;;27.00
35582;BMP180;21687;48.900;9.188;2023-07-13T13:13:50;98641.00;;;26.80
35582;BMP180;21687;48.900;9.188;2023-07-13T13:16:19;98636.00;;;26.20
35582;BMP180;21687;48.900;9.188;2023-07-13T13:18:46;98634.00;;;25.90
35582;BMP180;21687;48.900;9.188;2023-07-13T13:21:13;98628.00;;;25.50
35582;BMP180;21687;48.900;9.188;2023-07-13T13:23:39;98636.00;;;25.40
35582;BMP180;21687;48.900;9.188;2023-07-13T13:26:10;98632.00;;;25.80
35582;BMP180;21687;48.900;9.188;2023-07-13T13:28:37;98636.00;;;26.00
35582;BMP180;21687;48.900;9.188;2023-07-13T13:31:03;98638.00;;;26.30
35582;BMP180;21687;48.900;9.188;2023-07-13T13:33:30;98625.00;;;26.20
35582;BMP180;21687;48.900;9.188;2023-07-13T13:35:56;98627.00;;;26.70
35582;BMP180;21687;48.900;9.188;2023-07-13T13:38:26;98633.00;;;26.50
35582;BMP180;21687;48.900;9.188;2023-07-13T13:40:53;98627.00;;;26.70
35582;BMP180;21687;48.900;9.188;2023-07-13T13:43:27;98632.00;;;26.90
35582;BMP180;21687;48.900;9.188;2023-07-13T13:45:58;98629.00;;;26.70
35582;BMP180;21687;48.900;9.188;2023-07-13T13:48:35;98618.00;;;26.80
35582;BMP180;21687;48.900;9.188;2023-07-13T13:51:12;98633.00;;;26.80
35582;BMP180;21687;48.900;9.188;2023-07-13T13:53:39;98637.00;;;26.80
35582;BMP180;21687;48.900;9.188;2023-07-13T13:56:06;98618.00;;;26.70
35582;BMP180;21687;48.900;9.188;2023-07-13T13:58:32;98622.00;;;26.60
35582;BMP180;21687;48.900;9.188;2023-07-13T14:01:00;98623.00;;;26.70
35582;BMP180;21687;48.900;9.188;2023-07-13T14:03:27;98622.00;;;26.50
35582;BMP180;21687;48.900;9.188;2023-07-13T14:05:56;98620.00;;;27.00
35582;BMP180;21687;48.900;9.188;2023-07-13T14:08:23;98618.00;;;26.50
35582;BMP180;21687;48.900;9.188;2023-07-13T14:10:52;98614.00;;;26.60
35582;BMP180;21687;48.900;9.188;2023-07-13T14:13:23;98614.00;;;26.70
35582;BMP180;21687;48.900;9.188;2023-07-13T14:15:56;98619.00;;;26.60
35582;BMP180;21687;48.900;9.188;2023-07-13T14:18:22;98616.00;;;26.70
35582;BMP180;21687;48.900;9.188;2023-07-13T14:20:49;98616.00;;;26.70
35582;BMP180;21687;48.900;9.188;2023-07-13T14:23:18;98604.00;;;26.70
35582;BMP180;21687;48.900;9.188;2023-07-13T14:25:46;98608.00;;;26.80
35582;BMP180;21687;48.900;9.188;2023-07-13T14:28:26;98618.00;;;26.30
35582;BMP180;21687;48.900;9.188;2023-07-13T14:30:53;98623.00;;;26.30
35582;BMP180;21687;48.900;9.188;2023-07-13T14:33:22;98629.00;;;26.30
35582;BMP180;21687;48.900;9.188;2023-07-13T14:35:50;98632.00;;;26.10
35582;BMP180;21687;48.900;9.188;2023-07-13T14:38:19;98629.00;;;25.80
35582;BMP180;21687;48.900;9.188;2023-07-13T14:40:46;98630.00;;;25.90
35582;BMP180;21687;48.900;9.188;2023-07-13T14:43:16;98630.00;;;25.50
35582;BMP180;21687;48.900;9.188;2023-07-13T14:45:46;98616.00;;;25.50
35582;BMP180;21687;48.900;9.188;2023-07-13T14:48:25;98618.00;;;25.60
35582;BMP180;21687;48.900;9.188;2023-07-13T14:50:56;98622.00;;;25.70